Weather reports worldwide

Advertisment
Mont Aigoual, France (7560): temperature & dewpoint: 01.08.2020 02:00:00 - 07.08.2020 02:00:00 (CEST)Mont Aigoual, France (7560): wind speed & gusts: 01.08.2020 02:00:00 - 07.08.2020 02:00:00 (CEST)Mont Aigoual, France (7560): wind direction: 01.08.2020 02:00:00 - 07.08.2020 02:00:00 (CEST)Mont Aigoual, France (7560): visibility: 01.08.2020 02:00:00 - 07.08.2020 02:00:00 (CEST)Mont Aigoual, France (7560): precipitation: 01.08.2020 02:00:00 - 07.08.2020 02:00:00 (CEST)
Date & Time tt [°C] td [°C] ff [km/h] ff [kn] fx [km/h] fx [kn] dd vv [km] rr [mm]
07.08.2020 02:00:00 18,9 5,0 15 8 21 11 S 20 -
07.08.2020 01:00:00 18,9 5,7 16 9 18 10 SSE 20 0,0
07.08.2020 00:00:00 19,4 4,7 12 6 16 9 SSE 20 0,0
06.08.2020 23:00:00 19,7 5,0 11 6 15 8 E 20 0,0
06.08.2020 22:00:00 19,9 5,5 13 7 18 10 ENE 20 0,0
06.08.2020 21:00:00 21,6 5,5 9 5 13 7 NNE 20 0,0
06.08.2020 20:00:00 22,0 6,2 7 4 25 14 S 20 0,0
06.08.2020 19:00:00 23,3 4,7 16 9 35 19 S 20 0,0
06.08.2020 18:00:00 24,7 4,4 22 12 39 21 S 20 0,0
06.08.2020 17:00:00 24,8 5,0 21 11 37 20 S 18 0,0
06.08.2020 16:00:00 24,8 5,0 19 10 34 19 S 20 0,0
06.08.2020 15:00:00 24,2 5,0 18 10 32 17 S 20 0,0
06.08.2020 14:00:00 23,4 4,8 13 7 27 15 S 20 0,0
06.08.2020 13:00:00 22,9 3,4 6 3 19 10 E 20 0,0
06.08.2020 12:00:00 21,6 2,3 6 4 20 11 NNE 15 0,0
06.08.2020 11:00:00 20,4 0,2 10 5 24 13 NE 20 0,0
06.08.2020 10:00:00 19,2 -0,3 15 8 26 14 NNE 20 0,0
06.08.2020 09:00:00 18,1 1,1 15 8 28 15 N 18 0,0
06.08.2020 08:00:00 16,9 0,9 21 12 31 17 N 20 0,0
06.08.2020 07:00:00 16,0 2,0 24 13 32 18 N 20 0,0
06.08.2020 06:00:00 15,6 1,7 27 15 33 18 N 20 0,0
06.08.2020 05:00:00 15,3 2,8 24 13 33 18 N 20 0,0
06.08.2020 04:00:00 15,1 3,2 22 12 27 14 N 20 0,0
06.08.2020 03:00:00 15,3 3,4 21 11 24 13 NNW 20 0,0
06.08.2020 02:00:00 15,7 3,5 11 6 12 7 N 20 0,0
06.08.2020 01:00:00 15,9 3,3 6 4 10 5 ENE 20 0,0
06.08.2020 00:00:00 16,2 3,3 6 4 12 7 E 20 0,0
05.08.2020 23:00:00 16,3 3,4 10 5 17 9 E 20 0,0
05.08.2020 22:00:00 16,8 3,5 8 5 14 8 E 20 0,0
05.08.2020 21:00:00 17,6 3,5 11 6 23 12 ESE 20 0,0
05.08.2020 20:00:00 19,6 2,9 13 7 22 12 SSE 20 0,0
05.08.2020 19:00:00 21,3 0,5 5 3 19 11 N 20 0,0
05.08.2020 18:00:00 21,8 0,3 7 4 19 10 NE 20 0,0
05.08.2020 17:00:00 22,2 1,8 7 4 23 13 SSE 20 0,0
05.08.2020 16:00:00 21,8 2,0 6 4 21 11 SSW 20 0,0
05.08.2020 15:00:00 20,8 1,1 5 3 20 11 E 20 0,0
05.08.2020 14:00:00 19,7 1,6 5 3 20 11 SE 20 0,0
05.08.2020 13:00:00 18,0 1,9 6 3 19 10 SE 20 0,0
05.08.2020 12:00:00 16,1 1,0 9 5 31 17 NNE 20 0,0
05.08.2020 11:00:00 14,4 1,3 26 14 44 24 N 20 0,0
05.08.2020 10:00:00 13,2 0,9 34 18 49 26 NNE 20 0,0
05.08.2020 09:00:00 11,9 0,9 42 23 54 29 N 20 0,0
05.08.2020 08:00:00 10,2 1,6 45 24 65 35 N 20 0,0
05.08.2020 07:00:00 9,2 1,6 50 27 63 34 N 20 0,0
05.08.2020 06:00:00 9,1 2,0 53 28 71 39 N 20 0,0
05.08.2020 05:00:00 8,9 2,9 53 28 68 37 N 20 0,0
05.08.2020 04:00:00 8,5 3,3 53 28 67 36 N 20 0,0
05.08.2020 03:00:00 8,3 3,5 49 26 70 38 N 20 0,0
05.08.2020 02:00:00 8,6 3,8 50 27 89 48 N 20 0,0
05.08.2020 01:00:00 8,7 3,7 63 34 86 47 N 20 0,0
05.08.2020 00:00:00 8,9 3,3 56 30 83 45 N 20 0,0
04.08.2020 23:00:00 9,4 3,4 56 31 76 41 N 20 0,0
04.08.2020 22:00:00 10,0 3,3 53 28 79 43 N 20 0,0
04.08.2020 21:00:00 10,9 3,2 57 31 82 44 N 20 0,0
04.08.2020 20:00:00 11,8 2,5 52 28 82 45 N 20 0,0
04.08.2020 19:00:00 13,0 1,9 57 31 82 44 N 20 0,0
04.08.2020 18:00:00 13,3 1,6 50 27 80 43 N 20 0,0
04.08.2020 17:00:00 13,9 1,8 46 25 79 43 NNW 20 0,0
04.08.2020 16:00:00 13,7 1,0 46 25 79 42 N 20 0,0
04.08.2020 15:00:00 13,6 2,2 38 21 68 37 N 20 0,0
04.08.2020 14:00:00 13,2 2,4 35 19 74 40 N 20 0,0
04.08.2020 13:00:00 12,5 1,8 42 23 72 39 N 20 0,0
04.08.2020 12:00:00 11,1 2,9 43 23 92 50 N 20 0,0
04.08.2020 11:00:00 9,6 2,4 58 31 101 55 N 20 0,0
04.08.2020 10:00:00 8,0 2,7 68 37 108 58 N 20 0,0
04.08.2020 09:00:00 7,1 3,5 63 34 97 52 N 20 0,0
04.08.2020 08:00:00 6,3 3,3 58 31 99 53 N 20 0,0
04.08.2020 07:00:00 5,9 3,1 70 38 100 54 N 20 0,0
04.08.2020 06:00:00 5,7 3,7 72 39 100 54 N 20 0,0
04.08.2020 05:00:00 6,1 4,9 69 37 95 51 N 20 0,0
04.08.2020 04:00:00 6,2 5,6 61 33 87 47 N 20 0,0
04.08.2020 03:00:00 6,7 5,8 56 31 84 45 NNW 20 0,0
04.08.2020 02:00:00 7,6 6,7 52 28 96 52 N 20 0,0
04.08.2020 01:00:00 7,8 6,7 59 32 91 49 NNW 20 0,0
04.08.2020 00:00:00 8,2 6,8 53 29 92 50 N 20 0,0
03.08.2020 23:00:00 8,7 6,7 49 27 80 43 N 20 0,0
03.08.2020 22:00:00 9,0 6,6 47 25 85 46 NNW 20 0,0
03.08.2020 21:00:00 9,8 6,0 54 29 81 44 NNW 20 0,0
03.08.2020 20:00:00 10,5 4,8 44 24 83 45 NNW 20 0,0
03.08.2020 19:00:00 11,3 4,5 56 31 85 46 N 20 0,0
03.08.2020 18:00:00 11,3 5,2 46 25 85 46 N 20 0,0
03.08.2020 17:00:00 11,7 4,9 51 28 80 43 N 20 0,0
03.08.2020 16:00:00 12,5 4,5 42 23 87 47 N 20 0,0
03.08.2020 15:00:00 12,4 4,4 50 27 75 41 N 20 0,0
03.08.2020 14:00:00 12,6 5,7 32 17 78 42 NNW 20 0,0
03.08.2020 13:00:00 11,9 6,2 44 24 81 44 N 20 0,0
03.08.2020 12:00:00 12,1 5,7 43 23 78 42 N 20 0,0
03.08.2020 11:00:00 10,0 6,9 50 27 81 44 NNW 20 0,0
03.08.2020 10:00:00 8,8 7,6 53 28 83 45 N 20 0,0
03.08.2020 09:00:00 8,7 7,8 61 33 80 43 N 20 0,0
03.08.2020 08:00:00 8,8 7,9 55 30 77 42 N 20 0,0
03.08.2020 07:00:00 8,6 8,6 46 25 66 36 NNW 1,2 0,0
03.08.2020 06:00:00 8,9 8,9 47 26 62 34 NNW 0,1 0,0
03.08.2020 05:00:00 9,1 9,1 47 26 68 37 NNW 0,1 0,0
03.08.2020 04:00:00 9,2 9,2 44 24 66 36 NNW 1,1 0,0
03.08.2020 03:00:00 9,5 8,9 43 23 64 35 NNW 20 0,0
03.08.2020 02:00:00 9,7 8,8 43 23 62 34 NNW 20 0,0
03.08.2020 01:00:00 10,1 9,0 41 22 77 42 NW 20 0,0
03.08.2020 00:00:00 10,0 8,9 59 32 91 49 NW 20 0,0
02.08.2020 23:00:00 10,8 8,7 65 35 94 51 NNW 20 0,0
02.08.2020 22:00:00 11,7 8,2 55 30 79 42 NW 20 0,0
02.08.2020 21:00:00 12,4 8,9 48 26 63 34 NW 20 0,0
02.08.2020 20:00:00 13,0 9,4 45 25 60 33 NW 20 0,0
02.08.2020 19:00:00 13,7 9,5 42 23 61 33 NW 20 0,0
02.08.2020 18:00:00 14,9 10,3 41 22 58 32 NW 20 0,0
02.08.2020 17:00:00 16,2 11,4 35 19 58 32 NW 20 0,0
02.08.2020 16:00:00 16,3 11,0 39 21 63 34 NW 20 0,0
02.08.2020 15:00:00 15,1 9,7 39 21 70 38 NW 20 0,0
02.08.2020 14:00:00 16,5 10,6 44 24 71 38 NNW 20 0,0
02.08.2020 13:00:00 16,6 11,5 32 18 64 34 NNW 20 0,0
02.08.2020 12:00:00 15,3 12,1 33 18 67 36 N 20 0,0
02.08.2020 11:00:00 13,6 13,4 31 17 61 33 NNW 20 0,0
02.08.2020 10:00:00 12,7 12,7 48 26 71 39 NNW 0,1 0,0
02.08.2020 09:00:00 12,8 12,8 46 25 77 42 NNW 0,1 0,0
02.08.2020 08:00:00 12,9 12,9 40 22 66 35 NW - 0,0
02.08.2020 07:00:00 12,8 12,8 45 24 69 37 NNW - 0,0
02.08.2020 06:00:00 12,9 12,9 49 26 73 39 NW 0,1 0,0
02.08.2020 05:00:00 12,9 12,9 42 23 70 38 NNW 0,1 0,0
02.08.2020 04:00:00 12,8 12,8 50 27 77 42 NW 0,1 0,0
02.08.2020 03:00:00 12,9 12,9 50 27 71 38 NW 0,1 0,0
02.08.2020 02:00:00 13,2 13,2 49 27 67 36 NW 0,1 0,0
02.08.2020 01:00:00 13,5 13,5 50 27 68 37 NW - 0,0
02.08.2020 00:00:00 13,7 13,4 46 25 59 32 WNW 4,0 0,0
01.08.2020 23:00:00 15,1 13,0 37 20 49 27 NW 20 0,0
01.08.2020 22:00:00 18,3 8,8 31 17 52 28 NNW 20 0,0
01.08.2020 21:00:00 18,9 8,5 38 20 56 30 N 20 0,0
01.08.2020 20:00:00 20,4 9,0 39 21 69 38 N 20 0,0
01.08.2020 19:00:00 21,8 9,7 49 26 70 38 N 20 0,0
01.08.2020 18:00:00 23,5 14,2 43 23 64 35 NNW 20 0,0
01.08.2020 17:00:00 25,1 14,8 34 18 45 25 NW 20 0,0
01.08.2020 16:00:00 25,9 7,5 16 8 29 15 WNW 20 0,0
01.08.2020 15:00:00 26,7 6,7 9 5 31 17 NNE 20 0,0
01.08.2020 14:00:00 26,1 5,6 13 7 32 17 WNW 20 0,0
01.08.2020 13:00:00 25,0 6,2 16 9 31 17 NNW 19 0,0
01.08.2020 12:00:00 24,2 11,8 12 7 33 18 N 20 0,0
01.08.2020 11:00:00 22,7 12,3 21 11 46 25 N 20 0,0
01.08.2020 10:00:00 21,6 13,8 31 17 48 26 N 20 0,0
01.08.2020 09:00:00 21,0 12,9 33 18 50 27 NNW 20 0,0
01.08.2020 08:00:00 20,4 12,6 36 20 55 30 NNW 20 0,0
01.08.2020 07:00:00 19,6 12,4 42 23 57 31 NNW 20 0,0
01.08.2020 06:00:00 19,8 12,5 40 22 53 29 NNW 20 0,0
01.08.2020 05:00:00 20,2 12,4 40 22 48 26 NNW 20 0,0
01.08.2020 04:00:00 19,5 12,7 40 22 47 25 NNW 20 0,0
01.08.2020 03:00:00 20,2 12,7 39 21 48 26 NW 20 0,0
01.08.2020 02:00:00 20,4 12,4 36 20 46 25 NNW 20 0,0

tt = temperature
td = dewpoint
ff = wind speed
fx = gusts
dd = wind direction
vv = visibility
rr = precipitation

Next stations